Latest Weather Observations for Yarrawonga

IDV60801

Issued at 6:31 pm EST Monday 3 August 2015 (issued every 30 minutes, with the page automatically refreshed every 10 minutes)

About weather observations | Map of weather stations | Latest weather observations for VIC | Other Formats
Station Details ID: 081124 Name: YARRAWONGA Lat: -36.03 Lon: 146.03 Height: 128.9 m
Data from the previous 72 hours. | See also: Recent months at Yarrawonga
Date/Time
EST
Temp
°C
App
Temp
°C
Dew
Point
Rel
Hum
%
Delta-T
°C
Wind Press
QNH
hPa
Press
MSL
hPa
Rain
since 9 am
mm
Dir
 
Spd
km/h
Gust
km/h
Spd
kts
Gust
kts
03/06:30pm 4.2 0.6 0.5 77 1.4 WSW 9 11 5 6 1022.0 1022.2 0.0
03/06:00pm 4.7 0.7 0.7 75 1.5 SW 11 13 6 7 1021.7 1021.9 0.0
03/05:30pm 6.8 2.2 1.3 68 2.2 SW 15 19 8 10 1021.4 1021.6 0.0
03/05:00pm 8.3 3.9 2.8 68 2.3 WSW 15 17 8 9 1020.9 1021.1 0.0
03/04:30pm 8.8 3.6 2.6 65 2.6 WSW 19 24 10 13 1020.7 1020.9 0.0
03/04:00pm 9.7 4.4 3.0 63 2.9 SW 20 28 11 15 1020.2 1020.4 0.0
03/03:30pm 10.4 4.3 2.7 59 3.3 SW 24 32 13 17 1020.0 1020.2 0.0
03/03:00pm 10.1 2.3 1.5 55 3.6 SW 32 46 17 25 1019.6 1019.8 0.0
03/02:30pm 10.2 3.1 3.3 62 3.0 SW 30 43 16 23 1019.3 1019.5 0.0
03/02:00pm 10.7 2.5 2.8 58 3.4 SW 35 46 19 25 1019.0 1019.2 0.0
03/01:30pm 10.4 2.6 3.0 60 3.2 SW 33 44 18 24 1019.0 1019.2 0.0
03/01:00pm 9.9 2.4 3.2 63 2.9 SSW 32 41 17 22 1019.1 1019.3 0.0
03/12:30pm 7.9 -0.9 3.8 75 1.8 SSW 39 54 21 29 1019.2 1019.4 0.0
03/12:21pm 9.0 1.0 3.8 70 2.3 SW 35 52 19 28 1019.1 1019.3 0.0
03/12:00pm 10.8 2.4 3.6 61 3.2 WSW 37 46 20 25 1018.8 1019.0 0.0
03/11:30am 11.1 3.6 4.6 64 3.0 WSW 33 43 18 23 1018.8 1019.0 0.0
03/11:07am 10.9 4.1 5.0 67 2.7 WSW 30 50 16 27 1018.9 1019.1 0.0
03/11:00am 10.4 3.8 6.0 74 2.0 WSW 30 39 16 21 1018.8 1019.0 0.0
03/10:30am 10.0 4.6 6.3 78 1.7 W 24 35 13 19 1018.7 1018.9 0.0
03/10:00am 10.0 4.8 7.4 84 1.2 W 24 33 13 18 1018.5 1018.7 0.0
03/09:30am 8.9 3.2 6.5 85 1.1 W 26 41 14 22 1018.2 1018.4 0.0
03/09:00am 9.2 4.8 7.2 87 0.9 WNW 20 32 11 17 1018.1 1018.3 1.6
03/08:30am 8.1 3.7 6.6 90 0.7 NW 19 28 10 15 1017.9 1018.1 1.6
03/08:00am 7.6 3.9 6.5 93 0.5 NW 15 22 8 12 1017.4 1017.6 1.6
03/07:30am 6.8 3.5 6.2 96 0.3 NW 13 20 7 11 1017.2 1017.4 1.6
03/07:00am 6.8 3.5 6.2 96 0.3 NNW 13 19 7 10 1016.8 1017.0 1.6
03/06:30am 7.4 3.8 6.7 95 0.3 NW 15 22 8 12 1016.8 1017.0 1.6
03/06:00am 7.7 3.8 7.0 95 0.3 NW 17 24 9 13 1016.7 1016.9 1.6
03/05:30am 7.7 4.2 7.1 96 0.3 NW 15 24 8 13 1016.5 1016.7 1.6
03/05:00am 7.8 4.3 7.1 95 0.3 NW 15 20 8 11 1016.5 1016.7 1.6
03/04:30am 7.8 3.9 7.1 95 0.3 NW 17 22 9 12 1016.3 1016.5 1.6
03/04:00am 8.0 4.5 7.4 96 0.3 NW 15 24 8 13 1016.5 1016.7 1.6
03/03:30am 8.0 4.9 7.2 95 0.4 NW 13 20 7 11 1016.6 1016.8 1.2
03/03:00am 8.3 4.4 7.1 92 0.6 NW 17 22 9 12 1016.7 1016.9 1.2
03/02:30am 8.2 4.7 7.1 93 0.5 NW 15 22 8 12 1017.0 1017.2 1.2
03/02:00am 8.5 4.3 7.3 92 0.6 NW 19 28 10 15 1017.2 1017.4 1.2
03/01:30am 8.6 4.8 7.5 93 0.5 NW 17 28 9 15 1017.2 1017.4 1.2
03/01:00am 8.8 4.6 7.3 90 0.7 NW 19 26 10 14 1017.2 1017.4 1.0
03/12:30am 8.8 5.3 7.1 89 0.8 NW 15 22 8 12 1017.4 1017.6 1.0
03/12:00am 8.6 5.0 6.9 89 0.8 NW 15 20 8 11 1017.4 1017.6 1.0
 
Date/Time
EST
Temp
°C
App
Temp
°C
Dew
Point
Rel
Hum
%
Delta-T
°C
Wind Press
QNH
hPa
Press
MSL
hPa
Rain
since 9 am
mm
Dir
 
Spd
km/h
Gust
km/h
Spd
kts
Gust
kts
02/11:30pm 8.7 5.1 6.7 87 0.9 NNW 15 22 8 12 1017.3 1017.5 1.0
02/11:00pm 9.2 4.8 6.6 84 1.2 NW 19 30 10 16 1017.3 1017.5 1.0
02/10:30pm 9.5 4.5 6.4 81 1.4 NW 22 33 12 18 1017.5 1017.7 1.0
02/10:00pm 9.1 5.0 6.0 81 1.4 NNW 17 22 9 12 1017.4 1017.6 1.0
02/09:30pm 8.9 4.4 6.0 82 1.3 NNW 19 24 10 13 1017.2 1017.4 1.0
02/09:00pm 9.0 4.5 6.1 82 1.3 NNW 19 22 10 12 1017.1 1017.3 1.0
02/08:30pm 8.7 4.9 6.0 83 1.2 NNW 15 20 8 11 1016.9 1017.1 1.0
02/08:00pm 8.9 5.1 6.0 82 1.3 NNW 15 20 8 11 1016.8 1017.0 1.0
02/07:30pm 9.5 5.7 6.0 79 1.6 N 15 20 8 11 1016.7 1016.9 1.0
02/07:00pm 9.4 5.6 5.9 79 1.6 N 15 19 8 10 1016.5 1016.7 1.0
02/06:30pm 9.8 7.2 6.2 78 1.7 NNW 9 9 5 5 1016.6 1016.8 1.0
02/06:00pm 10.2 7.9 5.8 74 2.0 NNW 7 9 4 5 1016.1 1016.3 1.0
02/05:30pm 10.6 7.9 5.4 70 2.4 NW 9 17 5 9 1015.6 1015.7 1.0
02/05:00pm 11.1 7.5 5.2 67 2.7 NW 13 19 7 10 1015.1 1015.2 1.0
02/04:30pm 11.4 8.1 4.8 64 3.0 WNW 11 19 6 10 1014.8 1015.0 1.0
02/04:00pm 11.5 6.9 5.6 67 2.7 W 19 28 10 15 1015.0 1015.1 1.0
02/03:30pm 11.8 5.9 5.7 66 2.9 W 26 37 14 20 1015.0 1015.1 1.0
02/03:00pm 11.1 6.2 5.0 66 2.8 W 20 30 11 16 1014.6 1014.8 1.0
02/02:30pm 11.5 5.3 4.5 62 3.2 W 26 33 14 18 1014.2 1014.4 1.0
02/02:00pm 10.2 4.5 4.8 69 2.4 WSW 24 32 13 17 1014.1 1014.3 1.0
02/01:30pm 10.3 4.3 5.1 70 2.4 W 26 37 14 20 1014.2 1014.4 1.0
02/01:00pm 10.0 5.1 5.2 72 2.2 WSW 20 30 11 16 1014.5 1014.7 1.0
02/12:30pm 10.5 5.7 5.7 72 2.2 W 20 28 11 15 1014.7 1014.9 1.0
02/12:00pm 9.9 4.8 5.9 76 1.9 WSW 22 28 12 15 1014.8 1015.0 1.0
02/11:30am 9.1 3.5 5.5 78 1.6 SW 24 33 13 18 1015.0 1015.1 1.0
02/11:00am 8.5 4.5 6.5 87 0.9 SW 17 20 9 11 1015.1 1015.2 1.0
02/10:30am 7.7 4.1 6.6 93 0.5 SW 15 20 8 11 1014.8 1015.0 1.0
02/10:00am 7.3 4.4 6.7 96 0.3 SW 11 15 6 8 1015.3 1015.4 1.0
02/09:30am 7.1 2.7 6.4 95 0.3 WSW 19 28 10 15 1015.3 1015.4 0.2
02/09:00am 7.3 1.9 6.2 93 0.5 SW 24 32 13 17 1014.7 1014.9 15.6
02/08:30am 7.6 3.3 7.0 96 0.3 SW 19 22 10 12 1014.3 1014.5 15.6
02/08:00am 7.8 2.6 7.1 95 0.3 SW 24 32 13 17 1014.2 1014.4 15.0
02/07:30am 7.9 4.1 7.5 97 0.2 SW 17 22 9 12 1014.3 1014.5 15.0
02/07:00am 8.1 4.8 8.0 99 0.0 WSW 15 22 8 12 1013.7 1013.9 15.0
02/06:30am 7.9 5.7 7.8 99 0.0 SW 9 9 5 5 1013.2 1013.4 14.6
02/06:00am 7.6 5.3 7.5 99 0.0 WSW 9 9 5 5 1013.3 1013.5 14.6
02/05:30am 7.4 6.0 7.3 99 0.0 WSW 4 6 2 3 1013.1 1013.3 14.6
02/05:00am 7.2 6.1 7.1 99 0.0 SSW 2 4 1 2 1013.2 1013.4 14.6
02/04:30am 7.8 5.9 7.7 99 0.0 SSW 7 9 4 5 1013.2 1013.4 14.6
02/04:00am 7.7 6.0 7.6 99 0.0 S 6 6 3 3 1013.6 1013.8 14.6
02/03:30am 7.3 5.5 7.0 98 0.1 S 6 6 3 3 1013.8 1014.0 14.6
02/03:00am 8.4 6.9 8.3 99 0.0 SSE 6 7 3 4 1014.2 1014.4 14.6
02/02:30am 8.1 6.5 8.0 99 0.0 S 6 7 3 4 1014.3 1014.5 14.6
02/02:00am 8.2 7.0 8.1 99 0.0 SSE 4 6 2 3 1014.6 1014.8 14.6
02/01:30am 8.2 7.8 8.1 99 0.0 CALM 0 0 0 0 1015.3 1015.4 14.6
02/01:00am 8.4 6.9 8.3 99 0.0 NE 6 6 3 3 1015.2 1015.3 14.6
02/12:30am 8.9 7.5 8.8 99 0.0 NE 6 7 3 4 1016.3 1016.5 14.6
02/12:00am 9.0 8.8 8.9 99 0.0 CALM 0 4 0 2 1016.1 1016.3 14.6
 
Date/Time
EST
Temp
°C
App
Temp
°C
Dew
Point
Rel
Hum
%
Delta-T
°C
Wind Press
QNH
hPa
Press
MSL
hPa
Rain
since 9 am
mm
Dir
 
Spd
km/h
Gust
km/h
Spd
kts
Gust
kts
01/11:30pm 9.2 7.9 9.1 99 0.0 NNE 6 7 3 4 1016.9 1017.1 14.6
01/11:00pm 9.3 8.0 9.3 100 0.0 NE 6 9 3 5 1016.6 1016.8 14.4
01/10:30pm 9.6 8.2 9.6 100 0.0 NNE 7 9 4 5 1016.7 1016.9 14.2
01/10:00pm 9.9 8.8 9.9 100 0.0 N 6 7 3 4 1017.2 1017.4 13.8
01/09:30pm 10.0 8.3 10.0 100 0.0 N 9 13 5 7 1017.0 1017.2 13.4
01/09:00pm 10.1 8.5 10.1 100 0.0 N 9 15 5 8 1016.5 1016.7 13.0
01/08:30pm 10.1 9.8 10.1 100 0.0 NW 2 6 1 3 1017.1 1017.3 13.0
01/08:00pm 10.2 8.6 10.2 100 0.0 N 9 13 5 7 1017.1 1017.3 11.4
01/07:30pm 10.2 9.0 10.2 100 0.0 N 7 11 4 6 1016.1 1016.3 11.4
01/07:00pm 10.6 9.1 10.6 100 0.0 N 9 15 5 8 1016.6 1016.8 11.2
01/06:30pm 10.6 9.1 10.6 100 0.0 N 9 11 5 6 1016.2 1016.4 11.2
01/06:00pm 10.6 9.1 10.6 100 0.0 N 9 11 5 6 1015.0 1015.1 10.6
01/05:30pm 10.8 9.3 10.6 99 0.1 N 9 11 5 6 1015.2 1015.3 10.6
01/05:00pm 11.0 10.1 10.8 99 0.1 NNW 6 7 3 4 1015.2 1015.3 10.2
01/04:30pm 11.0 10.1 10.8 99 0.1 NW 6 9 3 5 1014.6 1014.8 10.2
01/04:00pm 11.0 9.9 10.8 99 0.1 WNW 7 11 4 6 1014.4 1014.6 9.8
01/03:30pm 10.9 9.8 10.7 99 0.1 NW 7 11 4 6 1014.3 1014.5 9.2
01/03:00pm 10.8 9.3 10.5 98 0.2 NW 9 15 5 8 1013.8 1014.0 7.8
01/02:30pm 10.7 8.4 10.4 98 0.2 NW 13 19 7 10 1013.5 1013.7 7.0
01/02:00pm 10.6 7.4 10.1 97 0.3 NW 17 24 9 13 1013.6 1013.8 5.8
01/01:30pm 10.7 7.5 10.1 96 0.3 NNW 17 20 9 11 1013.4 1013.6 5.2
01/01:00pm 10.8 8.1 10.2 96 0.3 NNW 15 19 8 10 1013.3 1013.5 5.0
01/12:30pm 10.7 8.0 10.2 97 0.3 NNW 15 20 8 11 1013.8 1014.0 4.0
01/12:00pm 10.3 7.8 9.8 97 0.3 NNW 13 17 7 9 1014.1 1014.3 3.8
01/11:30am 10.6 7.8 10.1 97 0.3 NNW 15 22 8 12 1014.3 1014.5 3.4
01/11:00am 10.2 8.1 9.9 98 0.2 NNW 11 17 6 9 1014.7 1014.9 3.0
01/10:30am 10.0 8.8 9.5 97 0.3 NW 6 9 3 5 1014.5 1014.7 1.6
01/10:00am 9.9 7.9 8.8 93 0.5 NNW 9 13 5 7 1014.3 1014.5 0.8
01/09:30am 10.8 7.8 7.9 82 1.4 N 13 15 7 8 1014.3 1014.6 0.0
01/09:00am 10.7 7.4 7.9 83 1.4 N 15 20 8 11 1014.1 1014.4 0.0
01/08:30am 10.3 8.6 8.4 88 0.9 NNE 7 15 4 8 1013.6 1013.9 0.0
01/08:00am 9.9 8.2 8.3 90 0.8 NNE 7 13 4 7 1013.7 1014.0 0.0
01/07:30am 9.8 7.3 8.1 89 0.8 NNE 11 17 6 9 1013.9 1014.2 0.0
01/07:00am 9.7 6.2 7.3 85 1.1 N 15 19 8 10 1014.4 1014.7 0.0
01/06:30am 9.5 6.0 7.1 85 1.1 N 15 20 8 11 1014.0 1014.3 0.0
01/06:00am 9.3 5.8 7.1 86 1.0 N 15 20 8 11 1014.0 1014.3 0.0
01/05:30am 8.7 5.1 6.8 88 0.9 NNE 15 22 8 12 1014.2 1014.5 0.0
01/05:00am 7.8 4.9 6.4 91 0.6 NE 11 17 6 9 1014.0 1014.3 0.0
01/04:30am 7.4 4.4 6.2 92 0.5 NE 11 17 6 9 1014.3 1014.6 0.0
01/04:00am 7.2 3.8 5.8 91 0.6 NE 13 17 7 9 1014.5 1014.8 0.0
01/03:30am 7.2 3.7 5.5 89 0.8 NE 13 19 7 10 1015.0 1015.2 0.0
01/03:00am 7.1 3.6 5.3 88 0.8 NE 13 19 7 10 1015.7 1015.9 0.0
01/02:30am 7.0 3.1 5.3 89 0.8 NE 15 22 8 12 1016.3 1016.5 0.0
01/02:00am 6.8 2.4 5.0 88 0.8 NE 17 22 9 12 1016.9 1017.1 0.0
01/01:30am 6.6 2.6 4.9 89 0.7 ENE 15 20 8 11 1017.3 1017.5 0.0
01/01:00am 6.5 2.9 4.8 89 0.7 ENE 13 17 7 9 1017.9 1018.1 0.0
01/12:30am 6.5 3.2 4.8 89 0.7 ENE 11 17 6 9 1018.3 1018.5 0.0
01/12:00am 6.3 3.0 4.6 89 0.7 ENE 11 15 6 8 1018.7 1019.0 0.0
 
Date/Time
EST
Temp
°C
App
Temp
°C
Dew
Point
Rel
Hum
%
Delta-T
°C
Wind Press
QNH
hPa
Press
MSL
hPa
Rain
since 9 am
mm
Dir
 
Spd
km/h
Gust
km/h
Spd
kts
Gust
kts
31/11:30pm 5.7 2.4 4.3 91 0.6 NE 11 17 6 9 1018.7 1019.0 0.0
31/11:00pm 5.6 2.6 4.1 90 0.6 NE 9 13 5 7 1019.2 1019.5 0.0
31/10:30pm 5.2 1.7 3.7 90 0.6 NE 11 13 6 7 1019.5 1019.8 0.0
31/10:00pm 5.5 2.9 4.0 90 0.6 NE 7 9 4 5 1019.7 1020.0 0.0
31/09:30pm 5.2 2.2 3.9 91 0.6 NNE 9 11 5 6 1019.9 1020.2 0.0
31/09:00pm 5.1 1.9 3.3 88 0.7 NNE 9 11 5 6 1020.3 1020.6 0.0
31/08:30pm 5.2 2.0 3.1 86 0.9 NNE 9 13 5 7 1020.0 1020.3 0.0
31/08:00pm 5.8 3.0 3.3 84 1.0 N 7 13 4 7 1020.3 1020.6 0.0
31/07:30pm 6.7 3.7 4.2 84 1.1 NNE 9 11 5 6 1020.0 1020.3 0.0
31/07:00pm 5.9 2.8 3.6 85 1.0 NE 9 11 5 6 1019.3 1019.6 0.0

Other Formats:

Comma delimited format used in spreadsheet applications
http://www.bom.gov.au/fwo/IDV60801/IDV60801.94862.axf

JavaScript Object Notation format (JSON) in row-major order
http://www.bom.gov.au/fwo/IDV60801/IDV60801.94862.json